createdAt,value
2019-05-21T00:00:22.134Z,111.17
2019-05-21T00:02:54.626Z,115.53
2019-05-21T00:05:27.869Z,131.77
2019-05-21T00:08:00.144Z,117.97
2019-05-21T00:10:32.369Z,121.87
2019-05-21T00:13:04.804Z,98.30
2019-05-21T00:15:38.641Z,83.43
2019-05-21T00:18:10.961Z,79.83
2019-05-21T00:20:43.285Z,80.67
2019-05-21T00:23:15.603Z,67.80
2019-05-21T00:25:47.823Z,42.90
2019-05-21T00:28:20.150Z,42.70
2019-05-21T00:30:52.385Z,34.07
2019-05-21T00:33:25.666Z,38.47
2019-05-21T00:35:57.959Z,33.87
2019-05-21T00:38:30.414Z,35.53
2019-05-21T00:41:03.055Z,34.03
2019-05-21T00:43:35.231Z,33.80
2019-05-21T00:46:07.493Z,37.23
2019-05-21T00:48:39.763Z,36.53
2019-05-21T00:51:11.983Z,36.33
2019-05-21T00:53:44.220Z,34.83
2019-05-21T00:56:16.427Z,41.07
2019-05-21T00:58:48.651Z,53.43
2019-05-21T01:01:20.917Z,69.67
2019-05-21T01:03:53.126Z,65.40
2019-05-21T01:06:25.382Z,80.80
2019-05-21T01:08:57.608Z,82.07
2019-05-21T01:11:29.899Z,86.43
2019-05-21T01:14:02.193Z,83.47
2019-05-21T01:16:34.382Z,70.60
2019-05-21T01:19:06.643Z,80.43
2019-05-21T01:21:38.946Z,92.07
2019-05-21T01:24:11.214Z,101.33
2019-05-21T01:26:43.487Z,94.77
2019-05-21T01:29:15.772Z,96.57
2019-05-21T01:31:47.981Z,107.67
2019-05-21T01:34:20.228Z,93.57
2019-05-21T01:36:52.671Z,113.20
2019-05-21T01:39:25.095Z,120.23
2019-05-21T01:41:57.602Z,116.07
2019-05-21T01:44:29.877Z,141.63
2019-05-21T01:47:04.147Z,126.03
2019-05-21T01:49:36.376Z,115.37
2019-05-21T01:52:09.422Z,127.63
2019-05-21T01:54:41.663Z,133.87
2019-05-21T01:57:13.972Z,133.37
2019-05-21T01:59:46.433Z,121.30
2019-05-21T02:02:18.643Z,122.30
2019-05-21T02:04:50.970Z,121.53
2019-05-21T02:07:25.373Z,107.37
2019-05-21T02:09:57.634Z,115.53
2019-05-21T02:12:29.837Z,132.47
2019-05-21T02:15:02.202Z,128.80
2019-05-21T02:17:35.516Z,138.00
2019-05-21T02:20:07.971Z,113.80
2019-05-21T02:22:40.258Z,95.97
2019-05-21T02:25:12.526Z,96.70
2019-05-21T02:27:44.771Z,83.47
2019-05-21T02:30:17.006Z,71.03
2019-05-21T02:32:49.265Z,74.70
2019-05-21T02:35:21.544Z,108.03
2019-05-21T02:37:53.776Z,106.63
2019-05-21T02:40:26.050Z,107.87
2019-05-21T02:42:58.323Z,87.93
2019-05-21T02:45:30.571Z,95.17
2019-05-21T02:48:02.809Z,95.90
2019-05-21T02:50:35.059Z,99.67
2019-05-21T02:53:07.355Z,100.60
2019-05-21T02:55:39.600Z,107.13
2019-05-21T02:58:11.845Z,101.43
2019-05-21T03:00:44.128Z,106.17
2019-05-21T03:03:17.564Z,88.37
2019-05-21T03:05:49.799Z,84.70
2019-05-21T03:08:21.983Z,79.40
2019-05-21T03:10:56.305Z,81.93
2019-05-21T03:13:28.490Z,83.63
2019-05-21T03:16:00.823Z,75.03
2019-05-21T03:18:33.107Z,88.77
2019-05-21T03:21:05.376Z,79.30
2019-05-21T03:23:37.678Z,92.73
2019-05-21T03:26:09.862Z,80.23
2019-05-21T03:28:42.105Z,82.67
2019-05-21T03:31:14.499Z,83.27
2019-05-21T03:33:47.013Z,87.27
2019-05-21T03:36:32.710Z,80.30
2019-05-21T03:38:53.180Z,72.33
2019-05-21T03:41:25.418Z,87.43
2019-05-21T03:43:57.671Z,71.03
2019-05-21T03:46:31.998Z,63.73
2019-05-21T03:49:04.223Z,57.33
2019-05-21T03:51:36.469Z,61.07
2019-05-21T03:54:08.755Z,46.10
2019-05-21T03:56:42.951Z,56.23
2019-05-21T03:59:15.435Z,47.33
2019-05-21T04:01:47.649Z,46.97
2019-05-21T04:04:19.878Z,61.73
2019-05-21T04:06:53.379Z,53.90
2019-05-21T04:09:25.665Z,55.63
2019-05-21T04:12:00.186Z,50.50
2019-05-21T04:14:32.488Z,52.23
2019-05-21T04:17:04.767Z,60.07
2019-05-21T04:19:37.062Z,56.30
2019-05-21T04:22:09.294Z,49.13
2019-05-21T04:24:41.575Z,51.27
2019-05-21T04:27:13.799Z,48.17
2019-05-21T04:29:46.153Z,62.87
2019-05-21T04:32:18.388Z,66.50
2019-05-21T04:34:50.601Z,60.90
2019-05-21T04:37:22.806Z,59.37
2019-05-21T04:39:55.105Z,57.77
2019-05-21T04:42:27.304Z,63.90
2019-05-21T04:44:59.589Z,61.40
2019-05-21T04:47:31.876Z,62.00
2019-05-21T04:50:04.142Z,61.23
2019-05-21T04:52:36.371Z,63.50
2019-05-21T04:55:08.608Z,62.03
2019-05-21T04:57:41.028Z,59.30
2019-05-21T05:00:13.497Z,59.40
2019-05-21T05:02:45.816Z,63.27
2019-05-21T05:05:18.088Z,66.17
2019-05-21T05:07:50.576Z,63.20
2019-05-21T05:10:22.898Z,63.17
2019-05-21T05:12:55.165Z,68.47
2019-05-21T05:15:27.411Z,66.97
2019-05-21T05:17:59.664Z,57.87
2019-05-21T05:20:32.006Z,60.50
2019-05-21T05:23:04.247Z,53.27
2019-05-21T05:25:36.491Z,48.23
2019-05-21T05:28:08.769Z,41.57
2019-05-21T05:30:40.985Z,49.97
2019-05-21T05:33:13.174Z,54.10
2019-05-21T05:35:45.491Z,52.00
2019-05-21T05:38:17.725Z,64.97
2019-05-21T05:40:49.954Z,58.53
2019-05-21T05:43:24.351Z,43.13
2019-05-21T05:45:58.661Z,44.07
2019-05-21T05:48:30.943Z,42.57
2019-05-21T05:51:03.421Z,43.77
2019-05-21T05:53:35.689Z,37.93
2019-05-21T05:56:07.951Z,36.77
2019-05-21T05:58:40.207Z,33.53
2019-05-21T06:01:12.433Z,31.77
2019-05-21T06:03:44.694Z,36.17
2019-05-21T06:06:17.116Z,38.03
2019-05-21T06:08:49.665Z,34.37
2019-05-21T06:11:21.919Z,36.03
2019-05-21T06:13:54.171Z,38.90
2019-05-21T06:16:26.431Z,26.53
2019-05-21T06:18:58.668Z,28.63
2019-05-21T06:21:30.897Z,36.93
2019-05-21T06:24:03.292Z,27.53
2019-05-21T06:26:35.609Z,32.83
2019-05-21T06:29:07.843Z,27.90
2019-05-21T06:31:40.050Z,28.57
2019-05-21T06:34:12.557Z,36.03
2019-05-21T06:36:44.792Z,29.20
2019-05-21T06:39:17.081Z,33.47
2019-05-21T06:41:49.328Z,31.20
2019-05-21T06:44:21.559Z,36.87
2019-05-21T06:46:54.095Z,43.33
2019-05-21T06:49:26.316Z,42.17
2019-05-21T06:51:58.559Z,30.83
2019-05-21T06:54:30.826Z,31.60
2019-05-21T06:57:03.051Z,36.73
2019-05-21T06:59:35.267Z,34.97
2019-05-21T07:02:07.562Z,28.57
2019-05-21T07:04:39.805Z,39.33
2019-05-21T07:07:12.008Z,31.43
2019-05-21T07:09:44.217Z,28.07
2019-05-21T07:12:16.488Z,26.90
2019-05-21T07:14:48.708Z,31.87
2019-05-21T07:17:20.922Z,37.83
2019-05-21T07:19:53.203Z,42.00
2019-05-21T07:22:25.432Z,41.10
2019-05-21T07:24:57.665Z,36.03
2019-05-21T07:27:29.880Z,31.20
2019-05-21T07:30:02.421Z,32.60
2019-05-21T07:32:35.386Z,35.70
2019-05-21T07:35:07.620Z,42.90
2019-05-21T07:37:40.255Z,38.67
2019-05-21T07:40:12.664Z,41.23
2019-05-21T07:42:44.923Z,42.10
2019-05-21T07:45:17.226Z,48.73
2019-05-21T07:47:51.557Z,37.40
2019-05-21T07:50:23.807Z,50.00
2019-05-21T07:52:56.042Z,50.83
2019-05-21T07:55:28.297Z,53.97
2019-05-21T07:58:00.559Z,45.53
2019-05-21T08:00:32.767Z,47.50
2019-05-21T08:03:04.980Z,47.57
2019-05-21T08:05:37.477Z,45.30
2019-05-21T08:08:09.729Z,48.93
2019-05-21T08:10:42.034Z,46.43
2019-05-21T08:13:14.253Z,40.43
2019-05-21T08:15:46.308Z,41.93
2019-05-21T08:18:18.561Z,43.30
2019-05-21T08:20:50.811Z,41.13
2019-05-21T08:23:23.067Z,43.83
2019-05-21T08:25:55.306Z,46.40
2019-05-21T08:28:27.582Z,42.67
2019-05-21T08:31:02.246Z,39.73
2019-05-21T08:33:33.739Z,39.40
2019-05-21T08:36:06.261Z,38.67
2019-05-21T08:38:38.458Z,37.07
2019-05-21T08:41:10.680Z,48.00
2019-05-21T08:43:42.901Z,40.00
2019-05-21T08:46:15.169Z,47.37
2019-05-21T08:48:47.402Z,38.23
2019-05-21T08:51:19.670Z,33.00
2019-05-21T08:53:51.867Z,35.93
2019-05-21T08:56:24.064Z,34.40
2019-05-21T08:58:56.333Z,35.17
2019-05-21T09:01:28.557Z,34.40
2019-05-21T09:04:00.832Z,27.97
2019-05-21T09:06:33.151Z,33.00
2019-05-21T09:09:05.429Z,35.93
2019-05-21T09:11:37.709Z,30.30
2019-05-21T09:14:10.078Z,33.83
2019-05-21T09:16:42.301Z,31.47
2019-05-21T09:19:14.502Z,30.33
2019-05-21T09:21:46.763Z,23.37
2019-05-21T09:24:19.013Z,24.37
2019-05-21T09:26:51.168Z,22.07
2019-05-21T09:29:23.449Z,29.27
2019-05-21T09:31:55.723Z,24.73
2019-05-21T09:34:27.980Z,26.77
2019-05-21T09:37:00.373Z,28.33
2019-05-21T09:39:32.633Z,31.53
2019-05-21T09:42:04.874Z,28.50
2019-05-21T09:44:37.165Z,28.57
2019-05-21T09:47:09.434Z,28.03
2019-05-21T09:49:41.711Z,31.07
2019-05-21T09:52:13.956Z,23.90
2019-05-21T09:54:46.165Z,22.13
2019-05-21T09:57:18.387Z,20.20
2019-05-21T09:59:50.868Z,33.13
2019-05-21T10:02:23.059Z,29.37
2019-05-21T10:04:55.324Z,22.83
2019-05-21T10:07:38.885Z,21.60
2019-05-21T10:10:01.501Z,22.10
2019-05-21T10:12:33.890Z,20.50
2019-05-21T10:15:06.133Z,23.23
2019-05-21T10:17:38.365Z,19.70
2019-05-21T10:20:10.809Z,21.63
2019-05-21T10:22:43.105Z,19.43
2019-05-21T10:25:15.995Z,22.03
2019-05-21T10:27:48.353Z,24.43
2019-05-21T10:30:20.583Z,23.13
2019-05-21T10:32:52.917Z,26.07
2019-05-21T10:35:25.233Z,29.80
2019-05-21T10:37:59.780Z,24.73
2019-05-21T10:40:34.215Z,25.70
2019-05-21T10:43:06.540Z,22.80
2019-05-21T10:45:38.819Z,18.53
2019-05-21T10:48:11.076Z,20.30
2019-05-21T10:50:43.325Z,22.33
2019-05-21T10:53:15.541Z,23.73
2019-05-21T10:55:47.790Z,20.60
2019-05-21T10:58:20.003Z,27.30
2019-05-21T11:00:52.261Z,19.00
2019-05-21T11:03:24.511Z,17.47
2019-05-21T11:06:09.789Z,17.13
2019-05-21T11:08:30.690Z,18.30
2019-05-21T11:11:02.890Z,19.63
2019-05-21T11:13:35.214Z,19.57
2019-05-21T11:16:07.509Z,21.70
2019-05-21T11:18:39.757Z,18.47
2019-05-21T11:21:12.969Z,18.53
2019-05-21T11:23:45.269Z,17.80
2019-05-21T11:26:17.458Z,21.73
2019-05-21T11:28:49.697Z,22.23
2019-05-21T11:31:22.087Z,20.37
2019-05-21T11:33:54.357Z,22.27
2019-05-21T11:36:26.587Z,24.57
2019-05-21T11:38:58.837Z,24.07
2019-05-21T11:41:31.055Z,26.10
2019-05-21T11:44:03.318Z,23.93
2019-05-21T11:46:35.552Z,29.27
2019-05-21T11:49:07.760Z,25.83
2019-05-21T11:51:40.066Z,24.53
2019-05-21T11:54:13.706Z,25.33
2019-05-21T11:56:46.173Z,32.13
2019-05-21T11:59:18.389Z,23.53
2019-05-21T12:01:50.598Z,21.30
2019-05-21T12:04:22.837Z,24.03
2019-05-21T12:06:55.060Z,24.50
2019-05-21T12:09:27.315Z,21.47
2019-05-21T12:11:59.600Z,24.23
2019-05-21T12:14:33.874Z,27.30
2019-05-21T12:17:08.356Z,31.60
2019-05-21T12:19:40.591Z,23.97
2019-05-21T12:22:12.844Z,26.17
2019-05-21T12:24:45.080Z,25.73
2019-05-21T12:27:17.366Z,25.60
2019-05-21T12:29:49.620Z,25.83
2019-05-21T12:32:21.949Z,26.97
2019-05-21T12:34:54.239Z,24.33
2019-05-21T12:37:26.502Z,23.63
2019-05-21T12:39:58.715Z,18.03
2019-05-21T12:42:30.945Z,19.37
2019-05-21T12:45:03.233Z,15.83
2019-05-21T12:47:35.472Z,18.83
2019-05-21T12:50:09.990Z,16.13
2019-05-21T12:52:42.192Z,17.17
2019-05-21T12:55:14.464Z,20.17
2019-05-21T12:57:46.685Z,13.87
2019-05-21T13:00:18.956Z,17.23
2019-05-21T13:02:51.226Z,16.47
2019-05-21T13:05:23.439Z,18.20
2019-05-21T13:07:55.673Z,15.40
2019-05-21T13:10:27.978Z,26.33
2019-05-21T13:13:00.266Z,18.10
2019-05-21T13:15:32.540Z,21.67
2019-05-21T13:18:04.832Z,18.43
2019-05-21T13:20:37.100Z,21.50
2019-05-21T13:23:11.775Z,19.73
2019-05-21T13:25:44.016Z,24.27
2019-05-21T13:28:16.256Z,26.10
2019-05-21T13:30:49.811Z,18.97
2019-05-21T13:33:22.707Z,24.93
2019-05-21T13:35:54.942Z,28.93
2019-05-21T13:38:27.280Z,21.43
2019-05-21T13:40:59.639Z,20.93
2019-05-21T13:43:31.933Z,28.33
2019-05-21T13:46:04.247Z,20.47
2019-05-21T13:48:36.545Z,18.97
2019-05-21T13:51:08.803Z,15.27
2019-05-21T13:53:41.209Z,19.00
2019-05-21T13:56:14.014Z,21.77
2019-05-21T13:58:46.513Z,18.03
2019-05-21T14:01:18.783Z,19.40
2019-05-21T14:03:51.175Z,21.53
2019-05-21T14:06:23.397Z,19.00
2019-05-21T14:08:55.687Z,18.40
2019-05-21T14:11:27.910Z,20.00
2019-05-21T14:14:00.247Z,26.30
2019-05-21T14:16:34.731Z,19.63
2019-05-21T14:19:06.433Z,22.90
2019-05-21T14:21:38.638Z,23.13
2019-05-21T14:24:10.918Z,22.83
2019-05-21T14:26:43.158Z,23.67
2019-05-21T14:29:15.502Z,24.27
2019-05-21T14:31:47.783Z,23.77
2019-05-21T14:34:20.104Z,22.57
2019-05-21T14:36:52.330Z,20.50
2019-05-21T14:39:24.648Z,20.47
2019-05-21T14:41:56.854Z,21.00
2019-05-21T14:44:29.540Z,27.03
2019-05-21T14:47:01.786Z,26.63
2019-05-21T14:49:34.116Z,19.13
2019-05-21T14:52:08.511Z,25.23
2019-05-21T14:54:40.821Z,25.23
2019-05-21T14:57:13.046Z,24.23
2019-05-21T14:59:45.441Z,24.67
2019-05-21T15:02:17.800Z,23.10
2019-05-21T15:04:50.318Z,27.37
2019-05-21T15:07:22.564Z,23.40
2019-05-21T15:09:54.866Z,24.40
2019-05-21T15:12:27.180Z,25.97
2019-05-21T15:14:59.442Z,24.73
2019-05-21T15:17:31.652Z,23.27
2019-05-21T15:20:03.966Z,26.27
2019-05-21T15:22:36.365Z,23.10
2019-05-21T15:25:08.631Z,22.97
2019-05-21T15:27:40.892Z,22.67
2019-05-21T15:30:13.524Z,25.77
2019-05-21T15:32:45.704Z,23.20
2019-05-21T15:35:17.958Z,22.17
2019-05-21T15:37:50.183Z,28.23
2019-05-21T15:40:22.409Z,26.33
2019-05-21T15:42:54.827Z,27.30
2019-05-21T15:45:27.070Z,24.37
2019-05-21T15:47:59.368Z,25.93
2019-05-21T15:50:31.670Z,23.27
2019-05-21T15:53:03.870Z,22.77
2019-05-21T15:55:36.181Z,26.37
2019-05-21T15:58:08.443Z,22.93
2019-05-21T16:00:40.691Z,24.87
2019-05-21T16:03:12.911Z,24.77
2019-05-21T16:05:45.178Z,23.50
2019-05-21T16:08:17.491Z,31.87
2019-05-21T16:10:49.754Z,26.03
2019-05-21T16:13:21.984Z,26.40
2019-05-21T16:15:54.355Z,26.33
2019-05-21T16:18:26.643Z,26.27
2019-05-21T16:20:58.939Z,25.27
2019-05-21T16:23:31.404Z,28.43
2019-05-21T16:26:04.071Z,23.40
2019-05-21T16:28:36.313Z,29.37
2019-05-21T16:31:08.574Z,33.13
2019-05-21T16:33:40.906Z,30.13
2019-05-21T16:36:13.147Z,30.43
2019-05-21T16:38:45.474Z,29.40
2019-05-21T16:41:17.711Z,28.03
2019-05-21T16:43:49.963Z,34.77
2019-05-21T16:46:22.200Z,26.33
2019-05-21T16:48:54.525Z,28.77
2019-05-21T16:51:26.759Z,35.73
2019-05-21T16:53:58.976Z,25.00
2019-05-21T16:56:31.254Z,32.43
2019-05-21T16:59:09.496Z,26.87
2019-05-21T17:01:46.560Z,30.10
2019-05-21T17:04:18.852Z,31.07
2019-05-21T17:06:51.086Z,39.13
2019-05-21T17:09:23.352Z,29.13
2019-05-21T17:12:00.118Z,26.67
2019-05-21T17:14:29.626Z,25.30
2019-05-21T17:17:01.847Z,25.57
2019-05-21T17:19:34.058Z,29.10
2019-05-21T17:22:06.336Z,24.90
2019-05-21T17:24:38.565Z,29.33
2019-05-21T17:27:10.794Z,29.33
2019-05-21T17:29:43.344Z,29.03
2019-05-21T17:32:15.574Z,32.53
2019-05-21T17:34:47.832Z,33.10
2019-05-21T17:37:20.134Z,27.57
2019-05-21T17:39:52.484Z,27.50
2019-05-21T17:42:25.782Z,31.47
2019-05-21T17:44:58.042Z,39.60
2019-05-21T17:47:30.271Z,35.50
2019-05-21T17:50:02.615Z,30.80
2019-05-21T17:52:34.922Z,33.37
2019-05-21T17:55:07.237Z,38.43
2019-05-21T17:57:39.700Z,35.83
2019-05-21T18:00:11.960Z,34.80
2019-05-21T18:02:44.762Z,37.37
2019-05-21T18:05:17.221Z,32.23
2019-05-21T18:07:49.826Z,33.97
2019-05-21T18:10:22.058Z,30.47
2019-05-21T18:13:00.594Z,38.73
2019-05-21T18:15:33.377Z,38.60
2019-05-21T18:18:05.652Z,34.17
2019-05-21T18:20:37.881Z,34.53
2019-05-21T18:23:10.176Z,32.73
2019-05-21T18:25:43.072Z,35.17
2019-05-21T18:28:15.308Z,35.87
2019-05-21T18:30:47.593Z,32.67
2019-05-21T18:33:20.024Z,30.10
2019-05-21T18:35:52.251Z,34.87
2019-05-21T18:38:24.505Z,36.37
2019-05-21T18:40:56.845Z,37.70
2019-05-21T18:43:29.134Z,37.80
2019-05-21T18:46:01.431Z,38.00
2019-05-21T18:48:33.697Z,35.93
2019-05-21T18:51:05.937Z,47.83
2019-05-21T18:53:38.215Z,38.50
2019-05-21T18:56:10.494Z,39.97
2019-05-21T18:58:42.929Z,39.80
2019-05-21T19:01:15.335Z,37.67
2019-05-21T19:03:47.566Z,44.23
2019-05-21T19:06:20.140Z,33.83
2019-05-21T19:08:52.429Z,38.57
2019-05-21T19:11:26.349Z,38.07
2019-05-21T19:13:59.287Z,44.80
2019-05-21T19:16:31.685Z,41.97
2019-05-21T19:19:03.915Z,39.40
2019-05-21T19:21:36.187Z,38.80
2019-05-21T19:24:08.525Z,50.70
2019-05-21T19:26:43.924Z,42.00
2019-05-21T19:29:14.930Z,39.53
2019-05-21T19:31:49.273Z,42.77
2019-05-21T19:34:21.248Z,45.60
2019-05-21T19:36:53.596Z,41.00
2019-05-21T19:39:25.886Z,46.80
2019-05-21T19:41:58.149Z,44.57
2019-05-21T19:44:32.713Z,36.63
2019-05-21T19:47:06.460Z,47.17
2019-05-21T19:49:38.786Z,48.67
2019-05-21T19:52:11.932Z,48.67
2019-05-21T19:54:44.330Z,49.20
2019-05-21T19:57:16.578Z,46.60
2019-05-21T19:59:49.142Z,48.43
2019-05-21T20:02:22.745Z,49.10
2019-05-21T20:04:55.130Z,49.90
2019-05-21T20:07:27.343Z,47.00
2019-05-21T20:09:59.568Z,50.40
2019-05-21T20:12:31.829Z,50.07
2019-05-21T20:15:04.131Z,51.27
2019-05-21T20:17:37.751Z,49.83
2019-05-21T20:20:11.052Z,51.60
2019-05-21T20:22:43.250Z,48.43
2019-05-21T20:25:15.537Z,48.50
2019-05-21T20:27:47.873Z,47.77
2019-05-21T20:30:20.099Z,56.17
2019-05-21T20:32:52.975Z,54.03
2019-05-21T20:35:25.229Z,44.73
2019-05-21T20:37:57.704Z,44.77
2019-05-21T20:40:29.982Z,40.53
2019-05-21T20:43:02.288Z,39.27
2019-05-21T20:45:34.518Z,37.43
2019-05-21T20:48:06.837Z,33.90
2019-05-21T20:50:39.157Z,26.40
2019-05-21T20:53:11.456Z,31.73
2019-05-21T20:55:43.785Z,22.63
2019-05-21T20:58:15.990Z,29.17
2019-05-21T21:00:48.248Z,18.17
2019-05-21T21:03:20.815Z,16.50
2019-05-21T21:05:53.019Z,16.97
2019-05-21T21:08:27.710Z,21.80
2019-05-21T21:10:59.326Z,23.13
2019-05-21T21:13:31.551Z,22.33
2019-05-21T21:16:04.183Z,25.97
2019-05-21T21:18:36.455Z,26.73
2019-05-21T21:21:08.674Z,27.93
2019-05-21T21:23:40.964Z,30.33
2019-05-21T21:26:13.249Z,30.77
2019-05-21T21:28:45.424Z,32.87
2019-05-21T21:31:17.756Z,34.73
2019-05-21T21:33:50.004Z,34.03
2019-05-21T21:36:22.266Z,35.67
2019-05-21T21:38:54.569Z,30.97
2019-05-21T21:41:26.810Z,32.80
2019-05-21T21:43:59.020Z,35.83
2019-05-21T21:46:31.267Z,39.00
2019-05-21T21:49:03.503Z,38.00
2019-05-21T21:51:35.736Z,38.40
2019-05-21T21:54:08.001Z,37.57
2019-05-21T21:56:40.251Z,36.33
2019-05-21T21:59:12.483Z,37.03
2019-05-21T22:01:44.781Z,37.43
2019-05-21T22:04:17.213Z,36.67
2019-05-21T22:06:49.501Z,31.73
2019-05-21T22:09:21.834Z,26.63
2019-05-21T22:11:54.174Z,26.30
2019-05-21T22:14:26.302Z,25.77
2019-05-21T22:16:58.549Z,24.20
2019-05-21T22:19:30.861Z,22.20
2019-05-21T22:22:03.141Z,27.43
2019-05-21T22:24:35.413Z,27.53
2019-05-21T22:27:07.647Z,22.47
2019-05-21T22:29:40.098Z,25.50
2019-05-21T22:32:12.468Z,23.37
2019-05-21T22:34:44.748Z,27.80
2019-05-21T22:37:16.841Z,24.67
2019-05-21T22:39:49.087Z,22.20
2019-05-21T22:42:21.286Z,19.73
2019-05-21T22:45:06.822Z,25.50
2019-05-21T22:47:28.222Z,23.27
2019-05-21T22:50:00.624Z,22.37
2019-05-21T22:52:32.842Z,24.87
2019-05-21T22:55:05.100Z,22.43
2019-05-21T22:57:37.370Z,22.47
2019-05-21T23:00:09.592Z,28.43
2019-05-21T23:02:41.816Z,27.87
2019-05-21T23:05:14.122Z,31.13
2019-05-21T23:07:47.966Z,32.00
2019-05-21T23:10:20.204Z,31.33
2019-05-21T23:12:52.414Z,31.67
2019-05-21T23:15:25.731Z,34.13
2019-05-21T23:18:17.761Z,31.17
2019-05-21T23:20:54.541Z,31.43
2019-05-21T23:23:28.542Z,32.07
2019-05-21T23:26:01.864Z,30.47
2019-05-21T23:28:34.086Z,29.87
2019-05-21T23:31:08.355Z,29.10
2019-05-21T23:33:40.585Z,29.63
2019-05-21T23:36:12.840Z,25.23
2019-05-21T23:38:45.071Z,31.73
2019-05-21T23:41:17.347Z,17.97
2019-05-21T23:43:49.625Z,20.57
2019-05-21T23:46:21.847Z,22.23
2019-05-21T23:48:54.093Z,22.73
2019-05-21T23:51:26.605Z,25.27
2019-05-21T23:53:58.936Z,21.67
2019-05-21T23:56:31.161Z,24.80
2019-05-21T23:59:03.450Z,20.00
